Horace, North Dakota
Current Conditions -  °F | °C
As of 2:17 AM on Monday 24 Nov 2014 (Local Time) from KFAR Reporting Station
Light Snow Light Snow  
Wind Chill: -2°   Ceiling: 2200
Heat Index: 16°   Visibility: 3mi
Dew Point: 10°   Wind: 24mph
Humidity: 77%   Direction: 330°NNW
Pressure: 29.59"   Gusts: 33mph
Location:  46.76°N, 96.9°W
Report Text: KFAR 240817Z AUTO 33021G29KT 3SM -SN SCT016 OVC022 M09/M12 A2959 RMK AO2 PK WND 33030/0807 P0000 T10891122 TSNO
Loading
Personal Weather Stations






























Interactive Weather Map New forecast layout! Learn more

10-Day Weather Forecast

Advertisements
Track Severe Weather on mobile